sensor_id;sensor_type;location;lat;lon;timestamp;temperature;humidity
69162;DHT22;56269;51.738;21.652;2022-10-12T00:00:36;1.96;99.99
69162;DHT22;56269;51.738;21.652;2022-10-12T00:03:23;1.90;99.99
69162;DHT22;56269;51.738;21.652;2022-10-12T00:06:00;2.05;99.99
69162;DHT22;56269;51.738;21.652;2022-10-12T00:08:28;2.05;99.99
69162;DHT22;56269;51.738;21.652;2022-10-12T00:10:54;1.76;99.99
69162;DHT22;56269;51.738;21.652;2022-10-12T00:13:19;1.66;99.99
69162;DHT22;56269;51.738;21.652;2022-10-12T00:15:46;1.62;99.99
69162;DHT22;56269;51.738;21.652;2022-10-12T00:18:12;1.58;99.99
69162;DHT22;56269;51.738;21.652;2022-10-12T00:20:37;1.62;99.99
69162;DHT22;56269;51.738;21.652;2022-10-12T00:23:04;1.79;99.99
69162;DHT22;56269;51.738;21.652;2022-10-12T00:25:30;2.07;99.99
69162;DHT22;56269;51.738;21.652;2022-10-12T00:27:56;2.07;99.99
69162;DHT22;56269;51.738;21.652;2022-10-12T00:30:22;1.95;99.99
69162;DHT22;56269;51.738;21.652;2022-10-12T00:32:48;1.92;99.99
69162;DHT22;56269;51.738;21.652;2022-10-12T00:35:14;1.87;99.99
69162;DHT22;56269;51.738;21.652;2022-10-12T00:37:40;1.66;99.99
69162;DHT22;56269;51.738;21.652;2022-10-12T00:40:06;1.49;99.99
69162;DHT22;56269;51.738;21.652;2022-10-12T00:42:33;1.46;99.99
69162;DHT22;56269;51.738;21.652;2022-10-12T00:44:59;1.41;99.99
69162;DHT22;56269;51.738;21.652;2022-10-12T00:47:32;1.54;99.99
69162;DHT22;56269;51.738;21.652;2022-10-12T00:50:03;1.52;99.99
69162;DHT22;56269;51.738;21.652;2022-10-12T00:52:44;1.52;99.99
69162;DHT22;56269;51.738;21.652;2022-10-12T00:55:14;1.48;99.99
69162;DHT22;56269;51.738;21.652;2022-10-12T00:57:41;1.46;99.99
69162;DHT22;56269;51.738;21.652;2022-10-12T01:00:10;1.45;99.99
69162;DHT22;56269;51.738;21.652;2022-10-12T01:02:39;1.39;99.99
69162;DHT22;56269;51.738;21.652;2022-10-12T01:05:07;1.39;99.99
69162;DHT22;56269;51.738;21.652;2022-10-12T01:07:33;1.44;99.99
69162;DHT22;56269;51.738;21.652;2022-10-12T01:09:59;1.38;99.99
69162;DHT22;56269;51.738;21.652;2022-10-12T01:12:26;1.38;99.99
69162;DHT22;56269;51.738;21.652;2022-10-12T01:14:52;1.32;99.99
69162;DHT22;56269;51.738;21.652;2022-10-12T01:17:52;1.11;99.99
69162;DHT22;56269;51.738;21.652;2022-10-12T01:31:40;1.23;99.99
69162;DHT22;56269;51.738;21.652;2022-10-12T01:36:48;1.21;99.99
69162;DHT22;56269;51.738;21.652;2022-10-12T01:39:40;1.04;99.99
69162;DHT22;56269;51.738;21.652;2022-10-12T01:42:13;0.85;99.99
69162;DHT22;56269;51.738;21.652;2022-10-12T01:44:41;0.79;99.99
69162;DHT22;56269;51.738;21.652;2022-10-12T01:47:07;0.74;99.99
69162;DHT22;56269;51.738;21.652;2022-10-12T01:49:33;0.76;99.99
69162;DHT22;56269;51.738;21.652;2022-10-12T01:52:14;0.72;99.99
69162;DHT22;56269;51.738;21.652;2022-10-12T01:55:05;0.74;99.99
69162;DHT22;56269;51.738;21.652;2022-10-12T01:57:49;0.74;99.99
69162;DHT22;56269;51.738;21.652;2022-10-12T02:00:18;0.80;99.99
69162;DHT22;56269;51.738;21.652;2022-10-12T02:03:19;0.80;99.99
69162;DHT22;56269;51.738;21.652;2022-10-12T02:06:13;0.76;99.99
69162;DHT22;56269;51.738;21.652;2022-10-12T02:08:54;0.73;99.99
69162;DHT22;56269;51.738;21.652;2022-10-12T02:11:22;0.72;99.99
69162;DHT22;56269;51.738;21.652;2022-10-12T02:14:02;0.64;99.99
69162;DHT22;56269;51.738;21.652;2022-10-12T02:16:38;0.66;99.99
69162;DHT22;56269;51.738;21.652;2022-10-12T02:19:09;0.62;99.99
69162;DHT22;56269;51.738;21.652;2022-10-12T02:21:37;0.57;99.99
69162;DHT22;56269;51.738;21.652;2022-10-12T02:24:06;0.63;99.99
69162;DHT22;56269;51.738;21.652;2022-10-12T02:26:34;0.60;99.99
69162;DHT22;56269;51.738;21.652;2022-10-12T02:29:02;0.69;99.99
69162;DHT22;56269;51.738;21.652;2022-10-12T02:31:41;0.59;99.99
69162;DHT22;56269;51.738;21.652;2022-10-12T02:37:13;0.32;99.99
69162;DHT22;56269;51.738;21.652;2022-10-12T02:39:53;0.22;99.99
69162;DHT22;56269;51.738;21.652;2022-10-12T02:42:31;0.30;99.99
69162;DHT22;56269;51.738;21.652;2022-10-12T02:45:02;0.33;99.99
69162;DHT22;56269;51.738;21.652;2022-10-12T02:47:30;0.39;99.99
69162;DHT22;56269;51.738;21.652;2022-10-12T02:49:59;0.39;99.99
69162;DHT22;56269;51.738;21.652;2022-10-12T02:52:25;0.41;99.99
69162;DHT22;56269;51.738;21.652;2022-10-12T02:54:52;0.43;99.99
69162;DHT22;56269;51.738;21.652;2022-10-12T02:57:19;0.45;99.99
69162;DHT22;56269;51.738;21.652;2022-10-12T02:59:44;0.57;99.99
69162;DHT22;56269;51.738;21.652;2022-10-12T03:02:11;0.59;99.99
69162;DHT22;56269;51.738;21.652;2022-10-12T03:04:37;0.64;99.99
69162;DHT22;56269;51.738;21.652;2022-10-12T03:07:03;0.57;99.99
69162;DHT22;56269;51.738;21.652;2022-10-12T03:09:29;0.54;99.99
69162;DHT22;56269;51.738;21.652;2022-10-12T03:11:55;0.60;99.99
69162;DHT22;56269;51.738;21.652;2022-10-12T03:14:21;0.72;99.99
69162;DHT22;56269;51.738;21.652;2022-10-12T03:16:48;0.66;99.99
69162;DHT22;56269;51.738;21.652;2022-10-12T03:19:14;0.43;99.99
69162;DHT22;56269;51.738;21.652;2022-10-12T03:21:40;0.21;99.99
69162;DHT22;56269;51.738;21.652;2022-10-12T03:24:06;0.19;99.99
69162;DHT22;56269;51.738;21.652;2022-10-12T03:26:32;0.21;99.99
69162;DHT22;56269;51.738;21.652;2022-10-12T03:28:59;0.16;99.99
69162;DHT22;56269;51.738;21.652;2022-10-12T03:31:25;0.19;99.99
69162;DHT22;56269;51.738;21.652;2022-10-12T03:33:51;0.19;99.99
69162;DHT22;56269;51.738;21.652;2022-10-12T03:36:17;0.18;99.99
69162;DHT22;56269;51.738;21.652;2022-10-12T03:38:43;0.16;99.99
69162;DHT22;56269;51.738;21.652;2022-10-12T03:41:09;0.02;99.99
69162;DHT22;56269;51.738;21.652;2022-10-12T03:43:35;-0.05;99.99
69162;DHT22;56269;51.738;21.652;2022-10-12T03:46:01;-0.05;99.99
69162;DHT22;56269;51.738;21.652;2022-10-12T03:48:28;0.01;99.99
69162;DHT22;56269;51.738;21.652;2022-10-12T03:50:54;0.13;99.99
69162;DHT22;56269;51.738;21.652;2022-10-12T03:53:20;0.23;99.99
69162;DHT22;56269;51.738;21.652;2022-10-12T03:55:46;0.26;99.99
69162;DHT22;56269;51.738;21.652;2022-10-12T03:58:13;0.26;99.99
69162;DHT22;56269;51.738;21.652;2022-10-12T04:00:39;0.30;99.99
69162;DHT22;56269;51.738;21.652;2022-10-12T04:03:05;0.15;99.99
69162;DHT22;56269;51.738;21.652;2022-10-12T04:05:31;-0.01;99.99
69162;DHT22;56269;51.738;21.652;2022-10-12T04:07:58;-0.10;99.99
69162;DHT22;56269;51.738;21.652;2022-10-12T04:10:24;-0.05;99.99
69162;DHT22;56269;51.738;21.652;2022-10-12T04:12:50;0.13;99.99
69162;DHT22;56269;51.738;21.652;2022-10-12T04:15:16;0.19;99.99
69162;DHT22;56269;51.738;21.652;2022-10-12T04:17:45;0.22;99.99
69162;DHT22;56269;51.738;21.652;2022-10-12T04:20:11;0.19;99.99
69162;DHT22;56269;51.738;21.652;2022-10-12T04:22:38;0.01;99.99
69162;DHT22;56269;51.738;21.652;2022-10-12T04:25:05;-0.26;99.99
69162;DHT22;56269;51.738;21.652;2022-10-12T04:27:31;-0.37;99.99
69162;DHT22;56269;51.738;21.652;2022-10-12T04:29:57;-0.39;99.99
69162;DHT22;56269;51.738;21.652;2022-10-12T04:32:23;-0.37;99.99
69162;DHT22;56269;51.738;21.652;2022-10-12T04:34:49;-0.32;99.99
69162;DHT22;56269;51.738;21.652;2022-10-12T04:37:15;-0.40;99.99
69162;DHT22;56269;51.738;21.652;2022-10-12T04:39:41;-0.50;99.99
69162;DHT22;56269;51.738;21.652;2022-10-12T04:42:07;-0.53;99.99
69162;DHT22;56269;51.738;21.652;2022-10-12T04:44:33;-0.44;99.99
69162;DHT22;56269;51.738;21.652;2022-10-12T04:47:00;-0.32;99.99
69162;DHT22;56269;51.738;21.652;2022-10-12T04:49:26;-0.29;99.99
69162;DHT22;56269;51.738;21.652;2022-10-12T04:51:53;-0.32;99.99
69162;DHT22;56269;51.738;21.652;2022-10-12T04:54:19;-0.28;99.99
69162;DHT22;56269;51.738;21.652;2022-10-12T04:56:45;-0.23;99.99
69162;DHT22;56269;51.738;21.652;2022-10-12T04:59:11;-0.09;99.99
69162;DHT22;56269;51.738;21.652;2022-10-12T05:01:37;-0.02;99.99
69162;DHT22;56269;51.738;21.652;2022-10-12T05:04:03;0.03;99.99
69162;DHT22;56269;51.738;21.652;2022-10-12T05:06:29;0.16;99.99
69162;DHT22;56269;51.738;21.652;2022-10-12T05:08:55;0.15;99.99
69162;DHT22;56269;51.738;21.652;2022-10-12T05:11:21;0.12;99.99
69162;DHT22;56269;51.738;21.652;2022-10-12T05:13:47;0.15;99.99
69162;DHT22;56269;51.738;21.652;2022-10-12T05:16:13;0.13;99.99
69162;DHT22;56269;51.738;21.652;2022-10-12T05:18:39;0.13;99.99
69162;DHT22;56269;51.738;21.652;2022-10-12T05:21:05;0.12;99.99
69162;DHT22;56269;51.738;21.652;2022-10-12T05:23:43;0.12;99.99
69162;DHT22;56269;51.738;21.652;2022-10-12T05:26:09;0.09;99.99
69162;DHT22;56269;51.738;21.652;2022-10-12T05:28:35;0.03;99.99
69162;DHT22;56269;51.738;21.652;2022-10-12T05:31:01;0.05;99.99
69162;DHT22;56269;51.738;21.652;2022-10-12T05:33:27;0.03;99.99
69162;DHT22;56269;51.738;21.652;2022-10-12T05:35:53;0.12;99.99
69162;DHT22;56269;51.738;21.652;2022-10-12T05:38:20;0.23;99.99
69162;DHT22;56269;51.738;21.652;2022-10-12T05:40:45;0.28;99.99
69162;DHT22;56269;51.738;21.652;2022-10-12T05:43:12;0.28;99.99
69162;DHT22;56269;51.738;21.652;2022-10-12T05:45:38;0.38;99.99
69162;DHT22;56269;51.738;21.652;2022-10-12T05:48:04;0.45;99.99
69162;DHT22;56269;51.738;21.652;2022-10-12T05:50:30;0.50;99.99
69162;DHT22;56269;51.738;21.652;2022-10-12T05:52:56;0.73;99.99
69162;DHT22;56269;51.738;21.652;2022-10-12T05:55:22;0.93;99.99
69162;DHT22;56269;51.738;21.652;2022-10-12T05:57:48;1.17;99.99
69162;DHT22;56269;51.738;21.652;2022-10-12T06:00:15;1.42;99.99
69162;DHT22;56269;51.738;21.652;2022-10-12T06:02:41;1.66;99.99
69162;DHT22;56269;51.738;21.652;2022-10-12T06:05:07;1.95;99.99
69162;DHT22;56269;51.738;21.652;2022-10-12T06:07:33;2.21;99.99
69162;DHT22;56269;51.738;21.652;2022-10-12T06:09:59;2.48;99.99
69162;DHT22;56269;51.738;21.652;2022-10-12T06:12:26;2.79;99.99
69162;DHT22;56269;51.738;21.652;2022-10-12T06:14:52;3.06;99.99
69162;DHT22;56269;51.738;21.652;2022-10-12T06:17:19;3.30;99.99
69162;DHT22;56269;51.738;21.652;2022-10-12T06:19:45;3.53;99.99
69162;DHT22;56269;51.738;21.652;2022-10-12T06:22:11;3.81;99.99
69162;DHT22;56269;51.738;21.652;2022-10-12T06:24:37;4.05;99.99
69162;DHT22;56269;51.738;21.652;2022-10-12T06:27:03;4.52;99.99
69162;DHT22;56269;51.738;21.652;2022-10-12T06:29:29;4.70;99.99
69162;DHT22;56269;51.738;21.652;2022-10-12T06:31:55;4.96;99.73
69162;DHT22;56269;51.738;21.652;2022-10-12T06:34:22;5.27;99.78
69162;DHT22;56269;51.738;21.652;2022-10-12T06:36:48;5.62;99.99
69162;DHT22;56269;51.738;21.652;2022-10-12T06:39:14;5.99;99.87
69162;DHT22;56269;51.738;21.652;2022-10-12T06:41:40;6.40;99.05
69162;DHT22;56269;51.738;21.652;2022-10-12T06:44:06;6.68;98.27
69162;DHT22;56269;51.738;21.652;2022-10-12T06:46:33;6.87;97.70
69162;DHT22;56269;51.738;21.652;2022-10-12T06:48:59;7.11;98.34
69162;DHT22;56269;51.738;21.652;2022-10-12T06:51:25;7.46;97.72
69162;DHT22;56269;51.738;21.652;2022-10-12T06:53:54;7.66;97.08
69162;DHT22;56269;51.738;21.652;2022-10-12T06:56:21;7.67;95.37
69162;DHT22;56269;51.738;21.652;2022-10-12T06:58:52;7.85;95.31
69162;DHT22;56269;51.738;21.652;2022-10-12T07:01:18;8.15;93.26
69162;DHT22;56269;51.738;21.652;2022-10-12T07:03:44;8.39;93.66
69162;DHT22;56269;51.738;21.652;2022-10-12T07:06:12;8.81;94.37
69162;DHT22;56269;51.738;21.652;2022-10-12T07:08:39;9.16;94.49
69162;DHT22;56269;51.738;21.652;2022-10-12T07:11:07;9.30;92.73
69162;DHT22;56269;51.738;21.652;2022-10-12T07:13:34;9.61;93.82
69162;DHT22;56269;51.738;21.652;2022-10-12T07:16:00;9.71;92.46
69162;DHT22;56269;51.738;21.652;2022-10-12T07:18:27;9.79;90.82
69162;DHT22;56269;51.738;21.652;2022-10-12T07:20:55;10.17;89.92
69162;DHT22;56269;51.738;21.652;2022-10-12T07:23:23;10.34;87.80
69162;DHT22;56269;51.738;21.652;2022-10-12T07:25:49;10.47;88.89
69162;DHT22;56269;51.738;21.652;2022-10-12T07:28:17;10.53;87.82
69162;DHT22;56269;51.738;21.652;2022-10-12T07:30:43;10.68;84.71
69162;DHT22;56269;51.738;21.652;2022-10-12T07:33:10;10.75;84.53
69162;DHT22;56269;51.738;21.652;2022-10-12T07:35:36;10.94;83.39
69162;DHT22;56269;51.738;21.652;2022-10-12T07:38:04;11.29;84.97
69162;DHT22;56269;51.738;21.652;2022-10-12T07:40:30;11.45;81.40
69162;DHT22;56269;51.738;21.652;2022-10-12T07:42:57;11.66;82.55
69162;DHT22;56269;51.738;21.652;2022-10-12T07:45:24;11.77;80.34
69162;DHT22;56269;51.738;21.652;2022-10-12T07:47:53;12.04;79.58
69162;DHT22;56269;51.738;21.652;2022-10-12T07:50:20;12.27;81.51
69162;DHT22;56269;51.738;21.652;2022-10-12T07:52:46;12.25;79.33
69162;DHT22;56269;51.738;21.652;2022-10-12T07:55:12;12.68;80.11
69162;DHT22;56269;51.738;21.652;2022-10-12T07:57:38;12.96;78.79
69162;DHT22;56269;51.738;21.652;2022-10-12T08:00:05;12.82;77.74
69162;DHT22;56269;51.738;21.652;2022-10-12T08:02:32;13.10;76.69
69162;DHT22;56269;51.738;21.652;2022-10-12T08:04:58;13.28;74.89
69162;DHT22;56269;51.738;21.652;2022-10-12T08:07:24;13.71;75.70
69162;DHT22;56269;51.738;21.652;2022-10-12T08:09:50;13.58;72.02
69162;DHT22;56269;51.738;21.652;2022-10-12T08:12:15;13.79;71.04
69162;DHT22;56269;51.738;21.652;2022-10-12T08:14:42;13.81;72.05
69162;DHT22;56269;51.738;21.652;2022-10-12T08:17:08;14.12;72.32
69162;DHT22;56269;51.738;21.652;2022-10-12T08:19:35;14.40;70.35
69162;DHT22;56269;51.738;21.652;2022-10-12T08:22:01;14.26;70.15
69162;DHT22;56269;51.738;21.652;2022-10-12T08:24:27;14.40;68.33
69162;DHT22;56269;51.738;21.652;2022-10-12T08:26:53;14.99;64.91
69162;DHT22;56269;51.738;21.652;2022-10-12T08:29:19;14.87;66.25
69162;DHT22;56269;51.738;21.652;2022-10-12T08:31:45;14.68;67.09
69162;DHT22;56269;51.738;21.652;2022-10-12T08:34:15;15.10;64.80
69162;DHT22;56269;51.738;21.652;2022-10-12T08:36:41;14.94;65.78
69162;DHT22;56269;51.738;21.652;2022-10-12T08:39:07;14.86;63.49
69162;DHT22;56269;51.738;21.652;2022-10-12T08:44:50;14.80;66.07
69162;DHT22;56269;51.738;21.652;2022-10-12T08:49:57;15.27;64.46
69162;DHT22;56269;51.738;21.652;2022-10-12T08:52:48;15.20;64.44
69162;DHT22;56269;51.738;21.652;2022-10-12T08:55:40;15.47;66.13
69162;DHT22;56269;51.738;21.652;2022-10-12T08:58:17;15.35;64.90
69162;DHT22;56269;51.738;21.652;2022-10-12T09:00:48;15.54;65.34
69162;DHT22;56269;51.738;21.652;2022-10-12T09:06:22;15.57;65.92
69162;DHT22;56269;51.738;21.652;2022-10-12T09:14:25;16.30;61.97
69162;DHT22;56269;51.738;21.652;2022-10-12T09:16:54;16.10;61.43
69162;DHT22;56269;51.738;21.652;2022-10-12T09:19:36;15.88;62.90
69162;DHT22;56269;51.738;21.652;2022-10-12T09:22:04;15.95;62.58
69162;DHT22;56269;51.738;21.652;2022-10-12T09:24:35;15.98;62.15
69162;DHT22;56269;51.738;21.652;2022-10-12T09:27:12;15.37;64.03
69162;DHT22;56269;51.738;21.652;2022-10-12T09:29:39;15.54;64.45
69162;DHT22;56269;51.738;21.652;2022-10-12T09:32:30;15.85;62.03
69162;DHT22;56269;51.738;21.652;2022-10-12T09:35:01;15.52;62.90
69162;DHT22;56269;51.738;21.652;2022-10-12T09:37:31;16.37;61.87
69162;DHT22;56269;51.738;21.652;2022-10-12T09:39:57;16.59;57.10
69162;DHT22;56269;51.738;21.652;2022-10-12T09:42:24;16.36;59.97
69162;DHT22;56269;51.738;21.652;2022-10-12T09:45:23;16.23;59.46
69162;DHT22;56269;51.738;21.652;2022-10-12T09:51:01;16.56;59.00
69162;DHT22;56269;51.738;21.652;2022-10-12T09:53:43;15.34;60.25
69162;DHT22;56269;51.738;21.652;2022-10-12T09:56:22;14.89;60.43
69162;DHT22;56269;51.738;21.652;2022-10-12T09:58:59;15.26;59.79
69162;DHT22;56269;51.738;21.652;2022-10-12T10:01:32;16.13;59.83
69162;DHT22;56269;51.738;21.652;2022-10-12T10:04:14;16.46;60.21
69162;DHT22;56269;51.738;21.652;2022-10-12T10:06:43;16.39;55.78
69162;DHT22;56269;51.738;21.652;2022-10-12T10:09:32;15.96;58.72
69162;DHT22;56269;51.738;21.652;2022-10-12T10:12:24;15.62;57.82
69162;DHT22;56269;51.738;21.652;2022-10-12T10:14:53;15.44;58.65
69162;DHT22;56269;51.738;21.652;2022-10-12T10:17:27;15.93;58.88
69162;DHT22;56269;51.738;21.652;2022-10-12T10:19:55;16.81;57.86
69162;DHT22;56269;51.738;21.652;2022-10-12T10:22:22;16.29;54.55
69162;DHT22;56269;51.738;21.652;2022-10-12T10:24:53;15.52;56.61
69162;DHT22;56269;51.738;21.652;2022-10-12T10:27:30;15.34;54.93
69162;DHT22;56269;51.738;21.652;2022-10-12T10:32:42;16.42;56.11
69162;DHT22;56269;51.738;21.652;2022-10-12T10:37:42;14.68;58.91
69162;DHT22;56269;51.738;21.652;2022-10-12T10:40:28;14.79;61.27
69162;DHT22;56269;51.738;21.652;2022-10-12T10:42:56;15.50;59.14
69162;DHT22;56269;51.738;21.652;2022-10-12T10:45:31;16.36;56.53
69162;DHT22;56269;51.738;21.652;2022-10-12T10:48:07;16.83;55.23
69162;DHT22;56269;51.738;21.652;2022-10-12T10:50:39;17.35;53.75
69162;DHT22;56269;51.738;21.652;2022-10-12T10:53:41;16.39;54.70
69162;DHT22;56269;51.738;21.652;2022-10-12T10:58:44;16.42;55.01
69162;DHT22;56269;51.738;21.652;2022-10-12T11:09:18;16.37;55.73
69162;DHT22;56269;51.738;21.652;2022-10-12T11:11:54;17.18;52.41
69162;DHT22;56269;51.738;21.652;2022-10-12T11:14:27;17.50;51.43
69162;DHT22;56269;51.738;21.652;2022-10-12T11:17:02;16.67;51.92
69162;DHT22;56269;51.738;21.652;2022-10-12T11:19:34;16.22;52.03
69162;DHT22;56269;51.738;21.652;2022-10-12T11:22:09;15.82;53.24
69162;DHT22;56269;51.738;21.652;2022-10-12T11:24:42;15.55;54.35
69162;DHT22;56269;51.738;21.652;2022-10-12T11:27:24;15.01;55.30
69162;DHT22;56269;51.738;21.652;2022-10-12T11:29:56;15.34;55.74
69162;DHT22;56269;51.738;21.652;2022-10-12T11:32:45;15.57;55.59
69162;DHT22;56269;51.738;21.652;2022-10-12T11:35:16;16.63;54.08
69162;DHT22;56269;51.738;21.652;2022-10-12T11:37:58;17.47;52.43
69162;DHT22;56269;51.738;21.652;2022-10-12T11:40:32;17.38;50.84
69162;DHT22;56269;51.738;21.652;2022-10-12T11:43:05;17.04;52.44
69162;DHT22;56269;51.738;21.652;2022-10-12T11:45:44;16.95;54.11
69162;DHT22;56269;51.738;21.652;2022-10-12T11:48:21;16.89;52.55
69162;DHT22;56269;51.738;21.652;2022-10-12T11:50:50;16.40;53.85
69162;DHT22;56269;51.738;21.652;2022-10-12T11:53:22;16.01;53.44
69162;DHT22;56269;51.738;21.652;2022-10-12T11:58:30;16.39;53.83
69162;DHT22;56269;51.738;21.652;2022-10-12T12:01:21;16.12;54.14
69162;DHT22;56269;51.738;21.652;2022-10-12T12:04:29;15.40;55.11
69162;DHT22;56269;51.738;21.652;2022-10-12T12:07:00;15.12;56.57
69162;DHT22;56269;51.738;21.652;2022-10-12T12:09:41;14.86;57.74
69162;DHT22;56269;51.738;21.652;2022-10-12T12:12:15;14.53;59.68
69162;DHT22;56269;51.738;21.652;2022-10-12T12:15:04;14.36;59.87
69162;DHT22;56269;51.738;21.652;2022-10-12T12:17:32;14.15;60.01
69162;DHT22;56269;51.738;21.652;2022-10-12T12:20:58;14.00;60.58
69162;DHT22;56269;51.738;21.652;2022-10-12T12:22:50;14.09;62.47
69162;DHT22;56269;51.738;21.652;2022-10-12T12:25:22;14.14;60.67
69162;DHT22;56269;51.738;21.652;2022-10-12T12:27:54;14.00;60.46
69162;DHT22;56269;51.738;21.652;2022-10-12T12:30:30;13.92;60.51
69162;DHT22;56269;51.738;21.652;2022-10-12T12:33:03;14.05;61.35
69162;DHT22;56269;51.738;21.652;2022-10-12T12:40:40;13.74;62.63
69162;DHT22;56269;51.738;21.652;2022-10-12T12:45:57;13.68;64.01
69162;DHT22;56269;51.738;21.652;2022-10-12T12:51:14;13.57;62.89
69162;DHT22;56269;51.738;21.652;2022-10-12T12:53:49;13.53;64.19
69162;DHT22;56269;51.738;21.652;2022-10-12T12:59:27;13.43;70.11
69162;DHT22;56269;51.738;21.652;2022-10-12T13:07:55;14.21;61.36
69162;DHT22;56269;51.738;21.652;2022-10-12T13:19:11;14.65;60.79
69162;DHT22;56269;51.738;21.652;2022-10-12T13:21:39;15.31;58.89
69162;DHT22;56269;51.738;21.652;2022-10-12T13:26:43;15.14;62.26
69162;DHT22;56269;51.738;21.652;2022-10-12T13:29:18;14.90;61.83
69162;DHT22;56269;51.738;21.652;2022-10-12T13:31:50;14.69;65.06
69162;DHT22;56269;51.738;21.652;2022-10-12T13:34:27;14.65;66.59
69162;DHT22;56269;51.738;21.652;2022-10-12T13:36:59;14.05;71.88
69162;DHT22;56269;51.738;21.652;2022-10-12T13:39:26;13.85;67.93
69162;DHT22;56269;51.738;21.652;2022-10-12T13:41:57;13.74;67.51
69162;DHT22;56269;51.738;21.652;2022-10-12T13:44:27;14.01;66.77
69162;DHT22;56269;51.738;21.652;2022-10-12T13:46:56;14.00;70.70
69162;DHT22;56269;51.738;21.652;2022-10-12T13:49:24;13.61;67.58
69162;DHT22;56269;51.738;21.652;2022-10-12T13:51:54;13.54;72.80
69162;DHT22;56269;51.738;21.652;2022-10-12T13:54:35;13.27;70.53
69162;DHT22;56269;51.738;21.652;2022-10-12T13:57:07;13.22;73.91
69162;DHT22;56269;51.738;21.652;2022-10-12T13:59:39;13.02;72.81
69162;DHT22;56269;51.738;21.652;2022-10-12T14:02:16;13.06;70.26
69162;DHT22;56269;51.738;21.652;2022-10-12T14:04:43;13.03;71.38
69162;DHT22;56269;51.738;21.652;2022-10-12T14:07:36;13.13;71.48
69162;DHT22;56269;51.738;21.652;2022-10-12T14:10:11;12.97;73.91
69162;DHT22;56269;51.738;21.652;2022-10-12T14:12:43;12.85;77.21
69162;DHT22;56269;51.738;21.652;2022-10-12T14:15:12;12.85;75.15
69162;DHT22;56269;51.738;21.652;2022-10-12T14:17:43;12.97;75.95
69162;DHT22;56269;51.738;21.652;2022-10-12T14:20:16;13.02;73.67
69162;DHT22;56269;51.738;21.652;2022-10-12T14:22:49;13.05;75.20
69162;DHT22;56269;51.738;21.652;2022-10-12T14:25:19;13.07;77.33
69162;DHT22;56269;51.738;21.652;2022-10-12T14:27:53;12.76;77.60
69162;DHT22;56269;51.738;21.652;2022-10-12T14:30:27;12.66;79.55
69162;DHT22;56269;51.738;21.652;2022-10-12T14:33:05;12.54;80.29
69162;DHT22;56269;51.738;21.652;2022-10-12T14:35:35;12.38;80.60
69162;DHT22;56269;51.738;21.652;2022-10-12T14:41:37;12.14;79.02
69162;DHT22;56269;51.738;21.652;2022-10-12T14:44:10;12.08;83.74
69162;DHT22;56269;51.738;21.652;2022-10-12T14:46:38;12.04;80.95
69162;DHT22;56269;51.738;21.652;2022-10-12T14:49:05;12.05;79.50
69162;DHT22;56269;51.738;21.652;2022-10-12T14:51:32;12.12;80.65
69162;DHT22;56269;51.738;21.652;2022-10-12T14:54:03;11.98;81.45
69162;DHT22;56269;51.738;21.652;2022-10-12T14:56:29;11.86;80.75
69162;DHT22;56269;51.738;21.652;2022-10-12T14:58:56;11.82;81.63
69162;DHT22;56269;51.738;21.652;2022-10-12T15:01:22;11.77;83.46
69162;DHT22;56269;51.738;21.652;2022-10-12T15:03:48;11.76;82.55
69162;DHT22;56269;51.738;21.652;2022-10-12T15:06:15;11.91;79.43
69162;DHT22;56269;51.738;21.652;2022-10-12T15:08:42;11.79;79.58
69162;DHT22;56269;51.738;21.652;2022-10-12T15:11:14;11.65;81.83
69162;DHT22;56269;51.738;21.652;2022-10-12T15:13:41;11.52;85.59
69162;DHT22;56269;51.738;21.652;2022-10-12T15:16:20;11.38;84.53
69162;DHT22;56269;51.738;21.652;2022-10-12T15:18:47;11.58;82.03
69162;DHT22;56269;51.738;21.652;2022-10-12T15:21:13;11.58;82.73
69162;DHT22;56269;51.738;21.652;2022-10-12T15:23:39;11.28;85.47
69162;DHT22;56269;51.738;21.652;2022-10-12T15:26:05;11.12;84.73
69162;DHT22;56269;51.738;21.652;2022-10-12T15:28:32;11.05;88.35
69162;DHT22;56269;51.738;21.652;2022-10-12T15:30:59;10.97;88.50
69162;DHT22;56269;51.738;21.652;2022-10-12T15:33:29;10.87;88.31
69162;DHT22;56269;51.738;21.652;2022-10-12T15:35:55;10.81;90.05
69162;DHT22;56269;51.738;21.652;2022-10-12T15:38:22;10.74;88.65
69162;DHT22;56269;51.738;21.652;2022-10-12T15:40:48;10.82;86.71
69162;DHT22;56269;51.738;21.652;2022-10-12T15:43:16;10.72;85.57
69162;DHT22;56269;51.738;21.652;2022-10-12T15:45:43;10.67;89.72
69162;DHT22;56269;51.738;21.652;2022-10-12T15:48:09;10.61;88.70
69162;DHT22;56269;51.738;21.652;2022-10-12T15:50:42;10.56;87.06
69162;DHT22;56269;51.738;21.652;2022-10-12T15:53:14;10.49;86.51
69162;DHT22;56269;51.738;21.652;2022-10-12T15:55:40;10.47;88.61
69162;DHT22;56269;51.738;21.652;2022-10-12T15:58:07;10.40;89.63
69162;DHT22;56269;51.738;21.652;2022-10-12T16:00:33;10.36;89.91
69162;DHT22;56269;51.738;21.652;2022-10-12T16:03:00;10.30;88.86
69162;DHT22;56269;51.738;21.652;2022-10-12T16:05:36;10.24;89.33
69162;DHT22;56269;51.738;21.652;2022-10-12T16:08:03;10.21;89.52
69162;DHT22;56269;51.738;21.652;2022-10-12T16:10:32;10.16;89.19
69162;DHT22;56269;51.738;21.652;2022-10-12T16:12:59;10.12;89.54
69162;DHT22;56269;51.738;21.652;2022-10-12T16:15:28;10.10;90.83
69162;DHT22;56269;51.738;21.652;2022-10-12T16:17:55;10.05;89.55
69162;DHT22;56269;51.738;21.652;2022-10-12T16:20:21;10.10;88.78
69162;DHT22;56269;51.738;21.652;2022-10-12T16:22:48;10.13;89.38
69162;DHT22;56269;51.738;21.652;2022-10-12T16:25:16;10.08;88.86
69162;DHT22;56269;51.738;21.652;2022-10-12T16:27:44;10.09;87.90
69162;DHT22;56269;51.738;21.652;2022-10-12T16:30:11;10.02;91.13
69162;DHT22;56269;51.738;21.652;2022-10-12T16:32:37;9.96;91.83
69162;DHT22;56269;51.738;21.652;2022-10-12T16:35:04;9.96;90.67
69162;DHT22;56269;51.738;21.652;2022-10-12T16:37:31;9.85;90.60
69162;DHT22;56269;51.738;21.652;2022-10-12T16:39:58;9.82;92.30
69162;DHT22;56269;51.738;21.652;2022-10-12T16:42:24;9.75;91.75
69162;DHT22;56269;51.738;21.652;2022-10-12T16:44:50;9.72;91.20
69162;DHT22;56269;51.738;21.652;2022-10-12T16:47:16;9.69;92.29
69162;DHT22;56269;51.738;21.652;2022-10-12T16:49:42;9.68;92.92
69162;DHT22;56269;51.738;21.652;2022-10-12T16:52:08;9.65;93.38
69162;DHT22;56269;51.738;21.652;2022-10-12T16:54:34;9.58;93.34
69162;DHT22;56269;51.738;21.652;2022-10-12T16:57:00;9.58;92.55
69162;DHT22;56269;51.738;21.652;2022-10-12T16:59:27;9.54;92.88
69162;DHT22;56269;51.738;21.652;2022-10-12T17:01:53;9.52;92.61
69162;DHT22;56269;51.738;21.652;2022-10-12T17:04:19;9.47;93.41
69162;DHT22;56269;51.738;21.652;2022-10-12T17:06:46;9.44;93.58